Hanska, Minnesota
Current Conditions -  °F | °C
As of 12:54 PM on Sunday 23 Nov 2014 (Local Time) from KULM Reporting Station
Scattered Clouds Scattered Clouds  
Wind Chill: 34°   Ceiling: Unl
Heat Index: 43°   Visibility: 10mi
Dew Point: 39°   Wind: 20mph
Humidity: 87%   Direction: 310°NW
Pressure: 29.43"   Gusts: 25mph
Location:  44.15°N, 94.49°W
Report Text: KULM 231854Z AUTO 31017G22KT 10SM SCT044 06/04 A2943 RMK AO2
Loading
Personal Weather Stations






























Interactive Weather Map New forecast layout! Learn more

10-Day Weather Forecast

Advertisements
Track Severe Weather on mobile